sensor_id;sensor_type;location;lat;lon;timestamp;P1;durP1;ratioP1;P2;durP2;ratioP2
22017;SDS011;11173;51.050;7.108;2022-12-11T00:05:51;13.20;;;9.43;;
22017;SDS011;11173;51.050;7.108;2022-12-11T00:15:52;15.48;;;9.80;;
22017;SDS011;11173;51.050;7.108;2022-12-11T00:25:52;17.25;;;11.63;;
22017;SDS011;11173;51.050;7.108;2022-12-11T00:35:52;22.35;;;12.25;;
22017;SDS011;11173;51.050;7.108;2022-12-11T00:45:53;16.45;;;10.05;;
22017;SDS011;11173;51.050;7.108;2022-12-11T00:55:53;21.90;;;12.63;;
22017;SDS011;11173;51.050;7.108;2022-12-11T01:05:54;27.42;;;13.77;;
22017;SDS011;11173;51.050;7.108;2022-12-11T01:15:57;19.67;;;10.77;;
22017;SDS011;11173;51.050;7.108;2022-12-11T01:26:03;28.83;;;14.38;;
22017;SDS011;11173;51.050;7.108;2022-12-11T01:46:09;34.63;;;16.00;;
22017;SDS011;11173;51.050;7.108;2022-12-11T01:56:10;34.63;;;15.48;;
22017;SDS011;11173;51.050;7.108;2022-12-11T02:16:41;27.08;;;13.68;;
22017;SDS011;11173;51.050;7.108;2022-12-11T02:27:02;20.45;;;11.40;;
22017;SDS011;11173;51.050;7.108;2022-12-11T02:37:17;24.40;;;12.45;;
22017;SDS011;11173;51.050;7.108;2022-12-11T02:47:20;19.15;;;11.00;;
22017;SDS011;11173;51.050;7.108;2022-12-11T02:57:24;25.52;;;12.73;;
22017;SDS011;11173;51.050;7.108;2022-12-11T03:07:31;18.38;;;11.55;;
22017;SDS011;11173;51.050;7.108;2022-12-11T03:47:54;26.70;;;13.02;;
22017;SDS011;11173;51.050;7.108;2022-12-11T03:57:57;18.58;;;10.77;;
22017;SDS011;11173;51.050;7.108;2022-12-11T04:07:57;28.80;;;13.35;;
22017;SDS011;11173;51.050;7.108;2022-12-11T04:17:57;26.65;;;13.52;;
22017;SDS011;11173;51.050;7.108;2022-12-11T04:28:16;24.05;;;12.30;;
22017;SDS011;11173;51.050;7.108;2022-12-11T04:38:17;22.02;;;11.07;;
22017;SDS011;11173;51.050;7.108;2022-12-11T04:48:17;28.88;;;13.45;;
22017;SDS011;11173;51.050;7.108;2022-12-11T04:58:18;21.85;;;11.90;;
22017;SDS011;11173;51.050;7.108;2022-12-11T05:08:18;18.08;;;10.82;;
22017;SDS011;11173;51.050;7.108;2022-12-11T05:18:20;12.45;;;7.75;;
22017;SDS011;11173;51.050;7.108;2022-12-11T05:28:21;8.65;;;5.82;;
22017;SDS011;11173;51.050;7.108;2022-12-11T05:38:22;8.30;;;5.40;;
22017;SDS011;11173;51.050;7.108;2022-12-11T05:48:23;6.25;;;3.72;;
22017;SDS011;11173;51.050;7.108;2022-12-11T05:58:23;2.75;;;2.55;;
22017;SDS011;11173;51.050;7.108;2022-12-11T06:08:24;13.48;;;7.55;;
22017;SDS011;11173;51.050;7.108;2022-12-11T06:18:24;8.63;;;5.80;;
22017;SDS011;11173;51.050;7.108;2022-12-11T06:28:24;6.68;;;4.57;;
22017;SDS011;11173;51.050;7.108;2022-12-11T06:38:25;4.30;;;3.90;;
22017;SDS011;11173;51.050;7.108;2022-12-11T06:48:25;3.83;;;3.17;;
22017;SDS011;11173;51.050;7.108;2022-12-11T06:58:25;9.02;;;5.90;;
22017;SDS011;11173;51.050;7.108;2022-12-11T07:08:26;3.03;;;2.83;;
22017;SDS011;11173;51.050;7.108;2022-12-11T07:18:27;7.70;;;4.63;;
22017;SDS011;11173;51.050;7.108;2022-12-11T07:28:28;9.10;;;5.30;;
22017;SDS011;11173;51.050;7.108;2022-12-11T07:38:28;4.03;;;3.63;;
22017;SDS011;11173;51.050;7.108;2022-12-11T07:48:29;2.75;;;2.30;;
22017;SDS011;11173;51.050;7.108;2022-12-11T07:58:29;2.20;;;2.10;;
22017;SDS011;11173;51.050;7.108;2022-12-11T08:08:30;2.40;;;1.95;;
22017;SDS011;11173;51.050;7.108;2022-12-11T08:18:31;1.60;;;1.50;;
22017;SDS011;11173;51.050;7.108;2022-12-11T08:28:32;1.90;;;1.80;;
22017;SDS011;11173;51.050;7.108;2022-12-11T08:38:33;1.65;;;1.55;;
22017;SDS011;11173;51.050;7.108;2022-12-11T08:48:34;1.63;;;1.52;;
22017;SDS011;11173;51.050;7.108;2022-12-11T08:58:35;3.53;;;2.85;;
22017;SDS011;11173;51.050;7.108;2022-12-11T09:08:36;3.63;;;3.33;;
22017;SDS011;11173;51.050;7.108;2022-12-11T09:18:37;3.00;;;2.65;;
22017;SDS011;11173;51.050;7.108;2022-12-11T09:28:39;2.40;;;2.20;;
22017;SDS011;11173;51.050;7.108;2022-12-11T09:38:40;1.98;;;1.88;;
22017;SDS011;11173;51.050;7.108;2022-12-11T09:48:47;1.45;;;1.45;;
22017;SDS011;11173;51.050;7.108;2022-12-11T10:19:56;1.70;;;1.60;;
22017;SDS011;11173;51.050;7.108;2022-12-11T10:40:13;3.53;;;2.88;;
22017;SDS011;11173;51.050;7.108;2022-12-11T10:50:21;3.83;;;3.33;;
22017;SDS011;11173;51.050;7.108;2022-12-11T11:00:41;2.35;;;1.98;;
22017;SDS011;11173;51.050;7.108;2022-12-11T11:10:52;2.83;;;2.58;;
22017;SDS011;11173;51.050;7.108;2022-12-11T11:20:57;3.20;;;2.90;;
22017;SDS011;11173;51.050;7.108;2022-12-11T11:31:03;2.92;;;2.70;;
22017;SDS011;11173;51.050;7.108;2022-12-11T11:51:19;9.68;;;5.20;;
22017;SDS011;11173;51.050;7.108;2022-12-11T12:01:26;18.98;;;10.57;;
22017;SDS011;11173;51.050;7.108;2022-12-11T12:21:48;14.20;;;8.32;;
22017;SDS011;11173;51.050;7.108;2022-12-11T12:31:58;5.20;;;4.10;;
22017;SDS011;11173;51.050;7.108;2022-12-11T12:52:31;2.92;;;2.55;;
22017;SDS011;11173;51.050;7.108;2022-12-11T13:02:37;2.42;;;2.17;;
22017;SDS011;11173;51.050;7.108;2022-12-11T13:12:48;11.43;;;6.70;;
22017;SDS011;11173;51.050;7.108;2022-12-11T13:32:58;13.23;;;7.43;;
22017;SDS011;11173;51.050;7.108;2022-12-11T13:43:04;5.20;;;4.47;;
22017;SDS011;11173;51.050;7.108;2022-12-11T13:53:15;14.45;;;8.32;;
22017;SDS011;11173;51.050;7.108;2022-12-11T14:03:16;4.80;;;3.28;;
22017;SDS011;11173;51.050;7.108;2022-12-11T14:13:21;2.30;;;2.10;;
22017;SDS011;11173;51.050;7.108;2022-12-11T14:23:25;7.45;;;5.18;;
22017;SDS011;11173;51.050;7.108;2022-12-11T14:33:31;9.05;;;5.82;;
22017;SDS011;11173;51.050;7.108;2022-12-11T14:43:37;6.00;;;4.87;;
22017;SDS011;11173;51.050;7.108;2022-12-11T14:53:45;4.70;;;4.18;;
22017;SDS011;11173;51.050;7.108;2022-12-11T15:03:47;16.80;;;10.40;;
22017;SDS011;11173;51.050;7.108;2022-12-11T15:13:51;10.45;;;6.30;;
22017;SDS011;11173;51.050;7.108;2022-12-11T15:23:58;5.37;;;4.33;;
22017;SDS011;11173;51.050;7.108;2022-12-11T15:34:00;9.30;;;6.75;;
22017;SDS011;11173;51.050;7.108;2022-12-11T15:44:02;15.85;;;8.50;;
22017;SDS011;11173;51.050;7.108;2022-12-11T15:54:03;8.32;;;5.90;;
22017;SDS011;11173;51.050;7.108;2022-12-11T16:04:03;5.20;;;4.35;;
22017;SDS011;11173;51.050;7.108;2022-12-11T16:14:04;4.45;;;3.90;;
22017;SDS011;11173;51.050;7.108;2022-12-11T16:24:04;5.35;;;4.35;;
22017;SDS011;11173;51.050;7.108;2022-12-11T16:34:04;3.92;;;3.53;;
22017;SDS011;11173;51.050;7.108;2022-12-11T16:44:05;13.52;;;8.10;;
22017;SDS011;11173;51.050;7.108;2022-12-11T16:54:05;8.38;;;5.03;;
22017;SDS011;11173;51.050;7.108;2022-12-11T17:04:06;9.23;;;5.97;;
22017;SDS011;11173;51.050;7.108;2022-12-11T17:14:08;4.72;;;3.75;;
22017;SDS011;11173;51.050;7.108;2022-12-11T17:24:09;4.75;;;3.63;;
22017;SDS011;11173;51.050;7.108;2022-12-11T17:34:09;7.82;;;5.38;;
22017;SDS011;11173;51.050;7.108;2022-12-11T17:44:09;13.30;;;9.20;;
22017;SDS011;11173;51.050;7.108;2022-12-11T17:54:10;12.57;;;8.98;;
22017;SDS011;11173;51.050;7.108;2022-12-11T18:04:10;7.15;;;5.00;;
22017;SDS011;11173;51.050;7.108;2022-12-11T18:14:11;11.10;;;7.05;;
22017;SDS011;11173;51.050;7.108;2022-12-11T18:24:11;4.88;;;3.90;;
22017;SDS011;11173;51.050;7.108;2022-12-11T18:34:12;3.08;;;2.75;;
22017;SDS011;11173;51.050;7.108;2022-12-11T18:44:12;2.45;;;2.28;;
22017;SDS011;11173;51.050;7.108;2022-12-11T18:54:12;3.25;;;2.90;;
22017;SDS011;11173;51.050;7.108;2022-12-11T19:04:13;2.00;;;1.90;;
22017;SDS011;11173;51.050;7.108;2022-12-11T19:14:13;1.92;;;1.83;;
22017;SDS011;11173;51.050;7.108;2022-12-11T19:24:17;2.17;;;2.08;;
22017;SDS011;11173;51.050;7.108;2022-12-11T19:34:20;2.50;;;2.30;;
22017;SDS011;11173;51.050;7.108;2022-12-11T19:44:20;2.50;;;2.40;;
22017;SDS011;11173;51.050;7.108;2022-12-11T19:54:21;2.25;;;2.15;;
22017;SDS011;11173;51.050;7.108;2022-12-11T20:04:21;11.50;;;7.10;;
22017;SDS011;11173;51.050;7.108;2022-12-11T20:14:22;9.50;;;6.32;;
22017;SDS011;11173;51.050;7.108;2022-12-11T20:24:25;8.07;;;6.32;;
22017;SDS011;11173;51.050;7.108;2022-12-11T20:34:25;11.63;;;7.30;;
22017;SDS011;11173;51.050;7.108;2022-12-11T20:44:26;7.75;;;5.80;;
22017;SDS011;11173;51.050;7.108;2022-12-11T20:54:26;9.75;;;7.18;;
22017;SDS011;11173;51.050;7.108;2022-12-11T21:04:27;14.90;;;9.32;;
22017;SDS011;11173;51.050;7.108;2022-12-11T21:14:27;14.15;;;9.07;;
22017;SDS011;11173;51.050;7.108;2022-12-11T21:24:28;17.65;;;11.75;;
22017;SDS011;11173;51.050;7.108;2022-12-11T21:34:29;17.52;;;10.13;;
22017;SDS011;11173;51.050;7.108;2022-12-11T21:44:29;10.55;;;8.00;;
22017;SDS011;11173;51.050;7.108;2022-12-11T21:54:29;16.23;;;10.45;;
22017;SDS011;11173;51.050;7.108;2022-12-11T22:04:30;12.70;;;9.02;;
22017;SDS011;11173;51.050;7.108;2022-12-11T22:14:31;16.52;;;10.30;;
22017;SDS011;11173;51.050;7.108;2022-12-11T22:24:31;10.60;;;7.57;;
22017;SDS011;11173;51.050;7.108;2022-12-11T22:34:31;10.07;;;7.57;;
22017;SDS011;11173;51.050;7.108;2022-12-11T22:44:32;6.68;;;5.43;;
22017;SDS011;11173;51.050;7.108;2022-12-11T22:54:32;14.82;;;9.90;;
22017;SDS011;11173;51.050;7.108;2022-12-11T23:04:32;6.80;;;6.07;;
22017;SDS011;11173;51.050;7.108;2022-12-11T23:14:33;4.82;;;4.25;;
22017;SDS011;11173;51.050;7.108;2022-12-11T23:24:33;5.63;;;4.40;;
22017;SDS011;11173;51.050;7.108;2022-12-11T23:34:33;4.38;;;3.97;;
22017;SDS011;11173;51.050;7.108;2022-12-11T23:44:34;9.32;;;6.15;;
22017;SDS011;11173;51.050;7.108;2022-12-11T23:54:34;6.28;;;5.00;;
